AAL9854 KHTS-KBOS
Flight info
| Callsign | AAL9854 |
|---|---|
| Flight time | 1h 32m |
| Altitude | 37000 |
| Route | HVQ J6 MRB EMI MXE ARD JFK ROBUC3 |
| Aircraft | A320/M-SDE3FGHIRWY/LB1 |
Departure
| Time | 2026-05-07 01:51 |
|---|---|
| Airport | Tri-State Airport / Milton J. Ferguson Field (KHTS) |
Arrival
| Time | 2026-05-07 03:23 |
|---|---|
| Airport | Boston Logan International Airport (KBOS) |
| Time | Latitude | Longitude | Altitude | Speed | Heading |
|---|---|---|---|---|---|
| 2026-05-07 01:14 | 38.36897 | -82.55642 | 842 ft | 0 kts | 65° |
| 2026-05-07 01:43 | 38.36888 | -82.55664 | 844 ft | 4 kts | 57° |
| 2026-05-07 01:43 | 38.36872 | -82.55691 | 835 ft | 4 kts | 47° |
| 2026-05-07 01:44 | 38.36854 | -82.55716 | 844 ft | 4 kts | 64° |
| 2026-05-07 01:44 | 38.36853 | -82.55739 | 844 ft | 4 kts | 114° |
| 2026-05-07 01:44 | 38.36862 | -82.55764 | 841 ft | 0 kts | 112° |
| 2026-05-07 01:44 | 38.36862 | -82.55765 | 841 ft | 0 kts | 112° |
| 2026-05-07 01:48 | 38.36853 | -82.55734 | 838 ft | 12 kts | 112° |
| 2026-05-07 01:48 | 38.36821 | -82.55635 | 841 ft | 11 kts | 111° |
| 2026-05-07 01:48 | 38.36793 | -82.55550 | 840 ft | 10 kts | 113° |
| 2026-05-07 01:49 | 38.36770 | -82.55478 | 845 ft | 8 kts | 111° |
| 2026-05-07 01:49 | 38.36758 | -82.55417 | 843 ft | 6 kts | 98° |
| 2026-05-07 01:49 | 38.36743 | -82.55336 | 843 ft | 17 kts | 110° |
| 2026-05-07 01:49 | 38.36692 | -82.55179 | 842 ft | 20 kts | 111° |
| 2026-05-07 01:50 | 38.36642 | -82.55023 | 847 ft | 18 kts | 112° |
| 2026-05-07 01:50 | 38.36598 | -82.54910 | 843 ft | 8 kts | 126° |
| 2026-05-07 01:50 | 38.36523 | -82.54897 | 844 ft | 17 kts | 205° |
| 2026-05-07 01:50 | 38.36511 | -82.54996 | 844 ft | 12 kts | 291° |
| 2026-05-07 01:51 | 38.36575 | -82.55193 | 843 ft | 52 kts | 291° |
| 2026-05-07 01:51 | 38.36808 | -82.55907 | 848 ft | 119 kts | 292° |
| 2026-05-07 01:51 | 38.37042 | -82.56647 | 881 ft | 149 kts | 292° |
| 2026-05-07 01:51 | 38.37713 | -82.58211 | 1717 ft | 150 kts | 313° |
| 2026-05-07 01:52 | 38.38437 | -82.59179 | 2346 ft | 154 kts | 313° |
| 2026-05-07 01:52 | 38.38916 | -82.59847 | 2755 ft | 156 kts | 312° |
| 2026-05-07 01:52 | 38.39671 | -82.60949 | 3088 ft | 172 kts | 311° |
| 2026-05-07 01:52 | 38.40477 | -82.62190 | 3398 ft | 193 kts | 303° |
| 2026-05-07 01:53 | 38.41325 | -82.64382 | 3818 ft | 224 kts | 293° |
| 2026-05-07 01:53 | 38.41743 | -82.65668 | 4052 ft | 241 kts | 294° |
| 2026-05-07 01:53 | 38.43117 | -82.68030 | 4821 ft | 260 kts | 320° |
| 2026-05-07 01:53 | 38.44120 | -82.68928 | 5384 ft | 263 kts | 331° |
| 2026-05-07 01:54 | 38.45912 | -82.69511 | 6231 ft | 275 kts | 356° |
| 2026-05-07 01:54 | 38.47827 | -82.69018 | 6960 ft | 291 kts | 20° |
| 2026-05-07 01:54 | 38.49479 | -82.67435 | 7640 ft | 307 kts | 49° |
| 2026-05-07 01:54 | 38.50418 | -82.64952 | 8319 ft | 319 kts | 80° |
| 2026-05-07 01:55 | 38.50361 | -82.62133 | 8991 ft | 322 kts | 106° |
| 2026-05-07 01:55 | 38.49873 | -82.59316 | 9683 ft | 329 kts | 107° |
| 2026-05-07 01:55 | 38.49346 | -82.56432 | 10174 ft | 344 kts | 108° |
| 2026-05-07 01:55 | 38.48780 | -82.53402 | 10402 ft | 366 kts | 107° |
| 2026-05-07 01:56 | 38.48187 | -82.50189 | 10900 ft | 377 kts | 107° |
| 2026-05-07 01:56 | 38.47594 | -82.46909 | 11524 ft | 382 kts | 106° |
| 2026-05-07 01:56 | 38.47004 | -82.43587 | 12212 ft | 386 kts | 106° |
| 2026-05-07 01:56 | 38.46410 | -82.40222 | 12910 ft | 391 kts | 106° |
| 2026-05-07 01:57 | 38.45809 | -82.36819 | 13581 ft | 396 kts | 105° |
| 2026-05-07 01:57 | 38.45200 | -82.33376 | 14182 ft | 401 kts | 106° |
| 2026-05-07 01:57 | 38.44578 | -82.29887 | 14750 ft | 406 kts | 106° |
| 2026-05-07 01:57 | 38.43946 | -82.26349 | 15300 ft | 412 kts | 107° |
| 2026-05-07 01:58 | 38.43300 | -82.22765 | 15850 ft | 417 kts | 107° |
| 2026-05-07 01:58 | 38.42642 | -82.19133 | 16396 ft | 423 kts | 108° |
| 2026-05-07 01:58 | 38.41974 | -82.15457 | 16931 ft | 428 kts | 108° |
| 2026-05-07 01:58 | 38.41299 | -82.11737 | 17454 ft | 434 kts | 108° |
| 2026-05-07 01:59 | 38.40615 | -82.07964 | 17987 ft | 439 kts | 108° |
| 2026-05-07 01:59 | 38.39922 | -82.04150 | 18479 ft | 444 kts | 109° |
| 2026-05-07 01:59 | 38.39219 | -82.00292 | 18941 ft | 449 kts | 109° |
| 2026-05-07 01:59 | 38.38508 | -81.96395 | 19406 ft | 454 kts | 109° |
| 2026-05-07 02:00 | 38.37790 | -81.92452 | 19888 ft | 459 kts | 109° |
| 2026-05-07 02:00 | 38.37066 | -81.88472 | 20300 ft | 464 kts | 109° |
| 2026-05-07 02:00 | 38.36331 | -81.84451 | 20763 ft | 469 kts | 109° |
| 2026-05-07 02:00 | 38.35642 | -81.80366 | 21214 ft | 477 kts | 103° |
| 2026-05-07 02:01 | 38.35478 | -81.76100 | 21668 ft | 488 kts | 88° |
| 2026-05-07 02:01 | 38.35999 | -81.71805 | 22116 ft | 494 kts | 75° |
| 2026-05-07 02:01 | 38.36874 | -81.67555 | 22601 ft | 499 kts | 75° |
| 2026-05-07 02:01 | 38.37758 | -81.63256 | 22995 ft | 505 kts | 75° |
| 2026-05-07 02:02 | 38.38644 | -81.58899 | 23404 ft | 510 kts | 75° |
| 2026-05-07 02:02 | 38.39528 | -81.54499 | 23752 ft | 515 kts | 75° |
| 2026-05-07 02:02 | 38.40417 | -81.50055 | 24126 ft | 519 kts | 75° |
| 2026-05-07 02:02 | 38.41311 | -81.45583 | 24498 ft | 522 kts | 75° |
| 2026-05-07 02:03 | 38.42208 | -81.41081 | 24862 ft | 526 kts | 75° |
| 2026-05-07 02:03 | 38.43108 | -81.36549 | 25225 ft | 529 kts | 75° |
| 2026-05-07 02:03 | 38.44012 | -81.31989 | 25579 ft | 532 kts | 75° |
| 2026-05-07 02:03 | 38.44921 | -81.27402 | 25918 ft | 535 kts | 75° |
| 2026-05-07 02:04 | 38.45833 | -81.22795 | 26289 ft | 537 kts | 75° |
| 2026-05-07 02:04 | 38.46747 | -81.18168 | 26640 ft | 539 kts | 75° |
| 2026-05-07 02:04 | 38.47665 | -81.13519 | 26980 ft | 541 kts | 75° |
| 2026-05-07 02:04 | 38.48586 | -81.08849 | 27306 ft | 544 kts | 75° |
| 2026-05-07 02:05 | 38.49511 | -81.04149 | 27628 ft | 547 kts | 75° |
| 2026-05-07 02:05 | 38.50436 | -80.99428 | 27959 ft | 550 kts | 75° |
| 2026-05-07 02:05 | 38.51364 | -80.94680 | 28287 ft | 553 kts | 75° |
| 2026-05-07 02:05 | 38.52295 | -80.89906 | 28568 ft | 555 kts | 75° |
| 2026-05-07 02:06 | 38.53222 | -80.85124 | 28955 ft | 555 kts | 75° |
| 2026-05-07 02:06 | 38.54151 | -80.80322 | 29282 ft | 559 kts | 75° |
| 2026-05-07 02:06 | 38.55087 | -80.75488 | 29524 ft | 562 kts | 75° |
| 2026-05-07 02:06 | 38.56028 | -80.70622 | 29805 ft | 565 kts | 75° |
| 2026-05-07 02:07 | 38.56968 | -80.65737 | 30071 ft | 568 kts | 75° |
| 2026-05-07 02:07 | 38.58853 | -80.55904 | 30572 ft | 572 kts | 75° |
| 2026-05-07 02:07 | 38.59798 | -80.50959 | 30768 ft | 573 kts | 75° |
| 2026-05-07 02:08 | 38.60745 | -80.46006 | 31063 ft | 574 kts | 75° |
| 2026-05-07 02:08 | 38.61697 | -80.41037 | 31271 ft | 577 kts | 75° |
| 2026-05-07 02:08 | 38.62650 | -80.36053 | 31513 ft | 577 kts | 75° |
| 2026-05-07 02:08 | 38.63595 | -80.31065 | 31798 ft | 577 kts | 75° |
| 2026-05-07 02:09 | 38.64532 | -80.26067 | 32072 ft | 578 kts | 75° |
| 2026-05-07 02:09 | 38.65464 | -80.21063 | 32330 ft | 579 kts | 75° |
| 2026-05-07 02:09 | 38.66399 | -80.16051 | 32569 ft | 579 kts | 75° |
| 2026-05-07 02:09 | 38.67339 | -80.11044 | 32873 ft | 579 kts | 75° |
| 2026-05-07 02:10 | 38.68268 | -80.06100 | 33159 ft | 579 kts | 75° |
| 2026-05-07 02:10 | 38.69206 | -80.01087 | 33384 ft | 580 kts | 75° |
| 2026-05-07 02:10 | 38.70142 | -79.96066 | 33721 ft | 579 kts | 75° |
| 2026-05-07 02:10 | 38.71069 | -79.91069 | 34084 ft | 577 kts | 75° |
| 2026-05-07 02:11 | 38.71994 | -79.86067 | 34337 ft | 577 kts | 75° |
| 2026-05-07 02:11 | 38.72914 | -79.81078 | 34583 ft | 576 kts | 75° |
| 2026-05-07 02:11 | 38.73832 | -79.76081 | 34756 ft | 577 kts | 75° |
| 2026-05-07 02:11 | 38.74749 | -79.71073 | 34943 ft | 577 kts | 75° |
| 2026-05-07 02:12 | 38.75667 | -79.66065 | 35098 ft | 578 kts | 75° |
| 2026-05-07 02:12 | 38.76584 | -79.61049 | 35320 ft | 578 kts | 74° |
| 2026-05-07 02:12 | 38.77501 | -79.56036 | 35508 ft | 578 kts | 74° |
| 2026-05-07 02:12 | 38.78414 | -79.51023 | 35733 ft | 578 kts | 74° |
| 2026-05-07 02:13 | 38.79324 | -79.45999 | 36004 ft | 578 kts | 74° |
| 2026-05-07 02:13 | 38.80230 | -79.40979 | 36250 ft | 578 kts | 74° |
| 2026-05-07 02:13 | 38.81129 | -79.35968 | 36490 ft | 577 kts | 74° |
| 2026-05-07 02:13 | 38.82028 | -79.30950 | 36671 ft | 577 kts | 74° |
| 2026-05-07 02:14 | 38.82927 | -79.25931 | 36829 ft | 578 kts | 74° |
| 2026-05-07 02:14 | 38.83975 | -79.20976 | 36905 ft | 573 kts | 65° |
| 2026-05-07 02:14 | 38.87263 | -79.11857 | 36884 ft | 558 kts | 54° |
| 2026-05-07 02:15 | 38.90907 | -79.03054 | 36904 ft | 557 kts | 54° |
| 2026-05-07 02:15 | 38.94521 | -78.94248 | 36904 ft | 558 kts | 54° |
| 2026-05-07 02:16 | 38.98104 | -78.85485 | 36908 ft | 558 kts | 54° |
| 2026-05-07 02:16 | 39.01707 | -78.76651 | 36906 ft | 558 kts | 54° |
| 2026-05-07 02:17 | 39.05304 | -78.67812 | 36929 ft | 558 kts | 54° |
| 2026-05-07 02:17 | 39.08900 | -78.58963 | 36931 ft | 557 kts | 54° |
| 2026-05-07 02:18 | 39.12480 | -78.50116 | 36929 ft | 557 kts | 54° |
| 2026-05-07 02:18 | 39.16055 | -78.41257 | 36933 ft | 557 kts | 54° |
| 2026-05-07 02:19 | 39.19614 | -78.32390 | 36928 ft | 557 kts | 54° |
| 2026-05-07 02:19 | 39.23178 | -78.23502 | 36924 ft | 560 kts | 55° |
| 2026-05-07 02:20 | 39.26754 | -78.14579 | 36913 ft | 561 kts | 55° |
| 2026-05-07 02:20 | 39.30329 | -78.05623 | 36912 ft | 562 kts | 55° |
| 2026-05-07 02:21 | 39.33898 | -77.96636 | 36905 ft | 563 kts | 55° |
| 2026-05-07 02:21 | 39.37391 | -77.87590 | 36907 ft | 567 kts | 61° |
| 2026-05-07 02:22 | 39.39499 | -77.77691 | 36944 ft | 577 kts | 78° |
| 2026-05-07 02:22 | 39.40804 | -77.67447 | 36917 ft | 578 kts | 78° |
| 2026-05-07 02:23 | 39.42101 | -77.57246 | 36910 ft | 579 kts | 78° |
| 2026-05-07 02:23 | 39.43407 | -77.46964 | 36927 ft | 579 kts | 78° |
| 2026-05-07 02:24 | 39.44707 | -77.36685 | 36934 ft | 579 kts | 78° |
| 2026-05-07 02:24 | 39.45996 | -77.26405 | 36938 ft | 579 kts | 78° |
| 2026-05-07 02:25 | 39.47266 | -77.16123 | 36935 ft | 578 kts | 78° |
| 2026-05-07 02:25 | 39.48528 | -77.05856 | 36943 ft | 577 kts | 78° |
| 2026-05-07 02:26 | 39.50273 | -76.95787 | 36945 ft | 569 kts | 64° |
| 2026-05-07 02:26 | 39.53302 | -76.86387 | 36878 ft | 567 kts | 60° |
| 2026-05-07 02:27 | 39.56403 | -76.76999 | 36877 ft | 567 kts | 60° |
| 2026-05-07 02:27 | 39.59490 | -76.67586 | 36890 ft | 567 kts | 60° |
| 2026-05-07 02:28 | 39.62567 | -76.58163 | 36894 ft | 568 kts | 60° |
| 2026-05-07 02:28 | 39.65637 | -76.48717 | 36894 ft | 568 kts | 60° |
| 2026-05-07 02:29 | 39.68701 | -76.39281 | 36933 ft | 567 kts | 60° |
| 2026-05-07 02:29 | 39.71771 | -76.29830 | 36907 ft | 568 kts | 60° |
| 2026-05-07 02:30 | 39.74822 | -76.20358 | 36895 ft | 569 kts | 60° |
| 2026-05-07 02:30 | 39.77863 | -76.10867 | 36881 ft | 569 kts | 60° |
| 2026-05-07 02:31 | 39.80905 | -76.01378 | 36911 ft | 568 kts | 60° |
| 2026-05-07 02:31 | 39.83935 | -75.91904 | 36918 ft | 567 kts | 60° |
| 2026-05-07 02:32 | 39.86953 | -75.82436 | 36924 ft | 566 kts | 60° |
| 2026-05-07 02:32 | 39.89957 | -75.72970 | 36914 ft | 565 kts | 60° |
| 2026-05-07 02:33 | 39.93267 | -75.63797 | 36944 ft | 552 kts | 50° |
| 2026-05-07 02:33 | 39.97098 | -75.55168 | 36940 ft | 551 kts | 50° |
| 2026-05-07 02:34 | 40.00899 | -75.46588 | 36927 ft | 553 kts | 50° |
| 2026-05-07 02:34 | 40.04773 | -75.37835 | 36874 ft | 554 kts | 51° |
| 2026-05-07 02:35 | 40.08585 | -75.29167 | 36878 ft | 555 kts | 51° |
| 2026-05-07 02:35 | 40.12421 | -75.20420 | 36890 ft | 555 kts | 51° |
| 2026-05-07 02:36 | 40.16248 | -75.11664 | 36894 ft | 555 kts | 51° |
| 2026-05-07 02:36 | 40.20072 | -75.02891 | 36888 ft | 555 kts | 51° |
| 2026-05-07 02:37 | 40.23894 | -74.94110 | 36872 ft | 555 kts | 51° |
| 2026-05-07 02:37 | 40.27328 | -74.84957 | 36874 ft | 563 kts | 58° |
| 2026-05-07 02:38 | 40.30501 | -74.75568 | 36878 ft | 564 kts | 58° |
| 2026-05-07 02:38 | 40.33680 | -74.66169 | 36881 ft | 564 kts | 58° |
| 2026-05-07 02:39 | 40.36858 | -74.56783 | 36863 ft | 563 kts | 58° |
| 2026-05-07 02:39 | 40.40027 | -74.47386 | 36860 ft | 564 kts | 59° |
| 2026-05-07 02:40 | 40.42650 | -74.39552 | 36875 ft | 564 kts | 59° |
| 2026-05-07 02:40 | 40.45792 | -74.30113 | 36876 ft | 564 kts | 59° |
| 2026-05-07 02:41 | 40.48932 | -74.20677 | 36883 ft | 563 kts | 59° |
| 2026-05-07 02:41 | 40.52049 | -74.11284 | 36877 ft | 561 kts | 59° |
| 2026-05-07 02:42 | 40.55163 | -74.01876 | 36873 ft | 561 kts | 59° |
| 2026-05-07 02:42 | 40.58265 | -73.92463 | 36872 ft | 561 kts | 59° |
| 2026-05-07 02:43 | 40.61358 | -73.83046 | 36883 ft | 562 kts | 59° |
| 2026-05-07 02:43 | 40.65166 | -73.74308 | 36564 ft | 534 kts | 37° |
| 2026-05-07 02:44 | 40.67629 | -73.70654 | 36287 ft | 533 kts | 36° |
| 2026-05-07 02:44 | 40.70115 | -73.67036 | 36006 ft | 531 kts | 36° |
| 2026-05-07 02:44 | 40.72603 | -73.63451 | 35698 ft | 529 kts | 36° |
| 2026-05-07 02:44 | 40.75081 | -73.59878 | 35432 ft | 526 kts | 36° |
| 2026-05-07 02:45 | 40.77537 | -73.56314 | 35165 ft | 524 kts | 36° |
| 2026-05-07 02:45 | 40.79979 | -73.52747 | 34950 ft | 523 kts | 36° |
| 2026-05-07 02:45 | 40.82407 | -73.49179 | 34691 ft | 522 kts | 37° |
| 2026-05-07 02:45 | 40.84822 | -73.45615 | 34433 ft | 520 kts | 37° |
| 2026-05-07 02:46 | 40.87226 | -73.42059 | 34177 ft | 518 kts | 37° |
| 2026-05-07 02:46 | 40.89621 | -73.38512 | 33922 ft | 516 kts | 37° |
| 2026-05-07 02:46 | 40.92014 | -73.34973 | 33634 ft | 515 kts | 37° |
| 2026-05-07 02:46 | 40.94393 | -73.31456 | 33342 ft | 512 kts | 37° |
| 2026-05-07 02:47 | 40.96752 | -73.27964 | 33019 ft | 510 kts | 37° |
| 2026-05-07 02:47 | 40.99108 | -73.24473 | 32779 ft | 507 kts | 37° |
| 2026-05-07 02:47 | 41.01450 | -73.20995 | 32496 ft | 504 kts | 37° |
| 2026-05-07 02:47 | 41.03780 | -73.17532 | 32213 ft | 502 kts | 37° |
| 2026-05-07 02:48 | 41.06098 | -73.14084 | 31942 ft | 500 kts | 37° |
| 2026-05-07 02:48 | 41.08406 | -73.10646 | 31664 ft | 498 kts | 37° |
| 2026-05-07 02:48 | 41.10702 | -73.07223 | 31397 ft | 496 kts | 38° |
| 2026-05-07 02:48 | 41.12989 | -73.03809 | 31126 ft | 494 kts | 38° |
| 2026-05-07 02:49 | 41.15265 | -73.00407 | 30895 ft | 493 kts | 38° |
| 2026-05-07 02:49 | 41.17508 | -72.97050 | 30514 ft | 492 kts | 38° |
| 2026-05-07 02:49 | 41.19768 | -72.93656 | 30091 ft | 489 kts | 39° |
| 2026-05-07 02:49 | 41.21757 | -72.89948 | 29667 ft | 500 kts | 55° |
| 2026-05-07 02:50 | 41.23367 | -72.85860 | 29232 ft | 498 kts | 56° |
| 2026-05-07 02:50 | 41.24942 | -72.81772 | 28796 ft | 495 kts | 57° |
| 2026-05-07 02:50 | 41.26489 | -72.77702 | 28366 ft | 492 kts | 57° |
| 2026-05-07 02:50 | 41.28019 | -72.73652 | 27936 ft | 489 kts | 57° |
| 2026-05-07 02:51 | 41.29539 | -72.69628 | 27573 ft | 485 kts | 57° |
| 2026-05-07 02:51 | 41.31054 | -72.65631 | 27164 ft | 483 kts | 57° |
| 2026-05-07 02:51 | 41.32564 | -72.61662 | 26755 ft | 480 kts | 57° |
| 2026-05-07 02:51 | 41.34066 | -72.57714 | 26325 ft | 476 kts | 57° |
| 2026-05-07 02:52 | 41.35559 | -72.53789 | 25933 ft | 473 kts | 57° |
| 2026-05-07 02:52 | 41.37033 | -72.49903 | 25545 ft | 469 kts | 57° |
| 2026-05-07 02:52 | 41.38495 | -72.46037 | 25159 ft | 465 kts | 58° |
| 2026-05-07 02:52 | 41.39943 | -72.42202 | 24784 ft | 462 kts | 58° |
| 2026-05-07 02:53 | 41.41381 | -72.38390 | 24412 ft | 459 kts | 58° |
| 2026-05-07 02:53 | 41.42808 | -72.34602 | 24042 ft | 456 kts | 58° |
| 2026-05-07 02:53 | 41.44225 | -72.30834 | 23681 ft | 453 kts | 58° |
| 2026-05-07 02:53 | 41.45632 | -72.27089 | 23297 ft | 451 kts | 58° |
| 2026-05-07 02:54 | 41.47029 | -72.23363 | 22829 ft | 448 kts | 58° |
| 2026-05-07 02:54 | 41.48412 | -72.19665 | 22398 ft | 444 kts | 59° |
| 2026-05-07 02:54 | 41.49775 | -72.15982 | 21982 ft | 441 kts | 59° |
| 2026-05-07 02:54 | 41.51119 | -72.12317 | 21569 ft | 438 kts | 60° |
| 2026-05-07 02:55 | 41.52448 | -72.08673 | 21107 ft | 437 kts | 60° |
| 2026-05-07 02:55 | 41.53776 | -72.05023 | 20509 ft | 439 kts | 61° |
| 2026-05-07 02:55 | 41.55097 | -72.01389 | 19911 ft | 430 kts | 62° |
| 2026-05-07 02:55 | 41.56351 | -71.97817 | 19341 ft | 421 kts | 64° |
| 2026-05-07 02:56 | 41.57484 | -71.94250 | 18779 ft | 413 kts | 67° |
| 2026-05-07 02:56 | 41.58525 | -71.90721 | 18223 ft | 405 kts | 69° |
| 2026-05-07 02:56 | 41.59518 | -71.87241 | 17606 ft | 397 kts | 69° |
| 2026-05-07 02:56 | 41.60491 | -71.83820 | 16987 ft | 390 kts | 69° |
| 2026-05-07 02:57 | 41.61454 | -71.80462 | 16368 ft | 384 kts | 69° |
| 2026-05-07 02:57 | 41.62255 | -71.77023 | 15763 ft | 398 kts | 84° |
| 2026-05-07 02:57 | 41.62244 | -71.73335 | 15177 ft | 397 kts | 105° |
| 2026-05-07 02:57 | 41.61341 | -71.69918 | 14601 ft | 386 kts | 127° |
| 2026-05-07 02:58 | 41.59688 | -71.67209 | 14032 ft | 370 kts | 148° |
| 2026-05-07 02:58 | 41.57534 | -71.65528 | 13451 ft | 352 kts | 169° |
| 2026-05-07 02:58 | 41.55190 | -71.64964 | 12821 ft | 339 kts | 183° |
| 2026-05-07 02:58 | 41.52868 | -71.64279 | 12398 ft | 350 kts | 162° |
| 2026-05-07 02:59 | 41.50951 | -71.62248 | 12263 ft | 360 kts | 135° |
| 2026-05-07 02:59 | 41.49852 | -71.59261 | 11882 ft | 363 kts | 108° |
| 2026-05-07 02:59 | 41.49651 | -71.55883 | 11372 ft | 369 kts | 87° |
| 2026-05-07 02:59 | 41.50188 | -71.52545 | 10976 ft | 368 kts | 68° |
| 2026-05-07 03:00 | 41.51447 | -71.49621 | 10625 ft | 361 kts | 46° |
| 2026-05-07 03:00 | 41.53334 | -71.47531 | 10232 ft | 348 kts | 22° |
| 2026-05-07 03:00 | 41.55555 | -71.46528 | 9897 ft | 329 kts | 360° |
| 2026-05-07 03:00 | 41.57744 | -71.46560 | 9769 ft | 304 kts | 341° |
| 2026-05-07 03:01 | 41.59686 | -71.47398 | 9456 ft | 286 kts | 324° |
| 2026-05-07 03:01 | 41.61276 | -71.48858 | 9081 ft | 272 kts | 309° |
| 2026-05-07 03:01 | 41.62545 | -71.50668 | 8531 ft | 267 kts | 304° |
| 2026-05-07 03:01 | 41.63965 | -71.52306 | 8114 ft | 277 kts | 323° |
| 2026-05-07 03:02 | 41.65842 | -71.53109 | 7721 ft | 293 kts | 348° |
| 2026-05-07 03:02 | 41.67899 | -71.52760 | 7308 ft | 308 kts | 15° |
| 2026-05-07 03:02 | 41.69679 | -71.51189 | 6921 ft | 318 kts | 45° |
| 2026-05-07 03:02 | 41.70815 | -71.48619 | 6525 ft | 318 kts | 69° |
| 2026-05-07 03:03 | 41.71621 | -71.45867 | 6136 ft | 317 kts | 69° |
| 2026-05-07 03:03 | 41.72424 | -71.43176 | 5722 ft | 315 kts | 64° |
| 2026-05-07 03:03 | 41.73480 | -71.40622 | 5301 ft | 313 kts | 59° |
| 2026-05-07 03:03 | 41.74554 | -71.38101 | 4987 ft | 308 kts | 59° |
| 2026-05-07 03:04 | 41.75607 | -71.35629 | 4990 ft | 306 kts | 59° |
| 2026-05-07 03:04 | 41.76660 | -71.33155 | 4990 ft | 306 kts | 60° |
| 2026-05-07 03:04 | 41.77715 | -71.30681 | 4991 ft | 306 kts | 59° |
| 2026-05-07 03:04 | 41.78773 | -71.28206 | 4990 ft | 306 kts | 59° |
| 2026-05-07 03:05 | 41.79830 | -71.25731 | 4990 ft | 306 kts | 59° |
| 2026-05-07 03:05 | 41.80887 | -71.23255 | 4983 ft | 306 kts | 60° |
| 2026-05-07 03:05 | 41.81942 | -71.20778 | 4982 ft | 306 kts | 59° |
| 2026-05-07 03:05 | 41.82995 | -71.18301 | 4982 ft | 306 kts | 59° |
| 2026-05-07 03:06 | 41.84047 | -71.15824 | 4979 ft | 306 kts | 59° |
| 2026-05-07 03:06 | 41.85101 | -71.13343 | 4979 ft | 306 kts | 59° |
| 2026-05-07 03:06 | 41.86157 | -71.10867 | 4999 ft | 305 kts | 59° |
| 2026-05-07 03:06 | 41.87218 | -71.08407 | 4998 ft | 305 kts | 59° |
| 2026-05-07 03:07 | 41.88286 | -71.05945 | 4998 ft | 306 kts | 59° |
| 2026-05-07 03:07 | 41.89358 | -71.03477 | 4999 ft | 305 kts | 59° |
| 2026-05-07 03:07 | 41.90424 | -71.01016 | 4998 ft | 305 kts | 59° |
| 2026-05-07 03:07 | 41.91490 | -70.98550 | 4875 ft | 307 kts | 59° |
| 2026-05-07 03:08 | 41.92558 | -70.96071 | 4402 ft | 307 kts | 59° |
| 2026-05-07 03:08 | 41.93620 | -70.93602 | 3982 ft | 304 kts | 59° |
| 2026-05-07 03:08 | 41.94670 | -70.91155 | 3572 ft | 302 kts | 59° |
| 2026-05-07 03:08 | 41.95715 | -70.88720 | 3163 ft | 300 kts | 58° |
| 2026-05-07 03:09 | 41.96755 | -70.86302 | 2717 ft | 298 kts | 59° |
| 2026-05-07 03:09 | 41.97788 | -70.83896 | 2303 ft | 297 kts | 59° |
| 2026-05-07 03:09 | 41.98816 | -70.81500 | 1912 ft | 295 kts | 59° |
| 2026-05-07 03:09 | 41.99838 | -70.79118 | 1544 ft | 293 kts | 60° |
| 2026-05-07 03:10 | 42.00845 | -70.76785 | 1506 ft | 284 kts | 56° |
| 2026-05-07 03:10 | 42.02098 | -70.74708 | 1724 ft | 289 kts | 46° |
| 2026-05-07 03:10 | 42.03444 | -70.72703 | 1996 ft | 288 kts | 46° |
| 2026-05-07 03:10 | 42.04791 | -70.70697 | 2274 ft | 290 kts | 46° |
| 2026-05-07 03:11 | 42.06150 | -70.68667 | 2549 ft | 294 kts | 46° |
| 2026-05-07 03:11 | 42.07513 | -70.66628 | 2827 ft | 292 kts | 46° |
| 2026-05-07 03:11 | 42.08875 | -70.64588 | 2974 ft | 294 kts | 46° |
| 2026-05-07 03:11 | 42.10307 | -70.62634 | 3003 ft | 292 kts | 34° |
| 2026-05-07 03:12 | 42.12055 | -70.61351 | 3005 ft | 283 kts | 13° |
| 2026-05-07 03:12 | 42.13788 | -70.60799 | 3007 ft | 280 kts | 5° |
| 2026-05-07 03:12 | 42.15696 | -70.60274 | 3007 ft | 280 kts | 5° |
| 2026-05-07 03:12 | 42.17600 | -70.59748 | 3011 ft | 278 kts | 5° |
| 2026-05-07 03:13 | 42.19495 | -70.59220 | 3017 ft | 279 kts | 5° |
| 2026-05-07 03:13 | 42.21401 | -70.58689 | 3016 ft | 280 kts | 6° |
| 2026-05-07 03:13 | 42.23300 | -70.58159 | 3016 ft | 278 kts | 5° |
| 2026-05-07 03:13 | 42.25196 | -70.57629 | 3014 ft | 279 kts | 6° |
| 2026-05-07 03:14 | 42.27091 | -70.57097 | 3013 ft | 278 kts | 5° |
| 2026-05-07 03:14 | 42.28973 | -70.56566 | 3012 ft | 275 kts | 5° |
| 2026-05-07 03:14 | 42.32666 | -70.56574 | 3005 ft | 260 kts | 333° |
| 2026-05-07 03:15 | 42.34209 | -70.57717 | 3008 ft | 248 kts | 314° |
| 2026-05-07 03:15 | 42.35452 | -70.59303 | 3007 ft | 245 kts | 309° |
| 2026-05-07 03:15 | 42.36674 | -70.60917 | 3012 ft | 246 kts | 310° |
| 2026-05-07 03:15 | 42.37904 | -70.62535 | 3005 ft | 247 kts | 311° |
| 2026-05-07 03:16 | 42.39137 | -70.64155 | 3002 ft | 247 kts | 311° |
| 2026-05-07 03:16 | 42.40370 | -70.65773 | 3001 ft | 247 kts | 311° |
| 2026-05-07 03:16 | 42.41584 | -70.67365 | 2997 ft | 246 kts | 311° |
| 2026-05-07 03:16 | 42.42832 | -70.69000 | 2996 ft | 246 kts | 311° |
| 2026-05-07 03:17 | 42.44049 | -70.70632 | 2994 ft | 245 kts | 306° |
| 2026-05-07 03:17 | 42.44947 | -70.72552 | 2994 ft | 241 kts | 295° |
| 2026-05-07 03:17 | 42.45748 | -70.74511 | 2991 ft | 241 kts | 295° |
| 2026-05-07 03:17 | 42.46558 | -70.76493 | 2962 ft | 240 kts | 295° |
| 2026-05-07 03:18 | 42.47361 | -70.78459 | 2574 ft | 238 kts | 295° |
| 2026-05-07 03:18 | 42.48153 | -70.80409 | 2170 ft | 235 kts | 294° |
| 2026-05-07 03:18 | 42.48925 | -70.82304 | 1978 ft | 223 kts | 294° |
| 2026-05-07 03:18 | 42.49653 | -70.84090 | 1848 ft | 210 kts | 293° |
| 2026-05-07 03:19 | 42.50336 | -70.85766 | 1750 ft | 195 kts | 293° |
| 2026-05-07 03:19 | 42.50955 | -70.87284 | 1691 ft | 175 kts | 290° |
| 2026-05-07 03:19 | 42.51329 | -70.88802 | 1679 ft | 170 kts | 275° |
| 2026-05-07 03:19 | 42.51330 | -70.90411 | 1685 ft | 172 kts | 259° |
| 2026-05-07 03:20 | 42.50968 | -70.91949 | 1687 ft | 171 kts | 245° |
| 2026-05-07 03:20 | 42.50277 | -70.93270 | 1689 ft | 174 kts | 229° |
| 2026-05-07 03:20 | 42.49240 | -70.94255 | 1710 ft | 203 kts | 210° |
| 2026-05-07 03:20 | 42.47861 | -70.95002 | 1689 ft | 218 kts | 205° |
| 2026-05-07 03:21 | 42.46411 | -70.95705 | 1695 ft | 223 kts | 205° |
| 2026-05-07 03:21 | 42.44947 | -70.96410 | 1574 ft | 223 kts | 205° |
| 2026-05-07 03:21 | 42.43487 | -70.97117 | 1311 ft | 222 kts | 204° |
| 2026-05-07 03:21 | 42.42063 | -70.97806 | 1024 ft | 206 kts | 204° |
| 2026-05-07 03:22 | 42.40794 | -70.98418 | 765 ft | 182 kts | 202° |
| 2026-05-07 03:22 | 42.39683 | -70.98958 | 532 ft | 158 kts | 202° |
| 2026-05-07 03:22 | 42.38722 | -70.99424 | 395 ft | 137 kts | 201° |
| 2026-05-07 03:22 | 42.37854 | -70.99843 | 182 ft | 128 kts | 202° |
| 2026-05-07 03:23 | 42.36992 | -71.00272 | 49 ft | 135 kts | 199° |
| 2026-05-07 03:23 | 42.36199 | -71.00661 | 27 ft | 101 kts | 199° |
| 2026-05-07 03:23 | 42.35712 | -71.00890 | 23 ft | 55 kts | 199° |
| 2026-05-07 03:23 | 42.35415 | -71.01033 | 29 ft | 32 kts | 197° |
| 2026-05-07 03:24 | 42.35237 | -71.01118 | 29 ft | 18 kts | 199° |
| 2026-05-07 03:24 | 42.35203 | -71.01226 | 28 ft | 15 kts | 303° |
| 2026-05-07 03:24 | 42.35277 | -71.01358 | 25 ft | 20 kts | 305° |
| 2026-05-07 03:24 | 42.35337 | -71.01470 | 24 ft | 14 kts | 307° |
| 2026-05-07 03:25 | 42.35397 | -71.01576 | 24 ft | 15 kts | 308° |
| 2026-05-07 03:25 | 42.35463 | -71.01691 | 26 ft | 15 kts | 313° |
| 2026-05-07 03:25 | 42.35547 | -71.01714 | 28 ft | 11 kts | 13° |
| 2026-05-07 03:25 | 42.35612 | -71.01683 | 28 ft | 9 kts | 20° |
| 2026-05-07 03:26 | 42.35667 | -71.01655 | 28 ft | 8 kts | 20° |
| 2026-05-07 03:26 | 42.35715 | -71.01633 | 29 ft | 7 kts | 19° |
| 2026-05-07 03:26 | 42.35752 | -71.01615 | 29 ft | 5 kts | 19° |
| 2026-05-07 03:26 | 42.35776 | -71.01604 | 30 ft | 3 kts | 20° |
| 2026-05-07 03:27 | 42.35819 | -71.01578 | 30 ft | 20 kts | 24° |
| 2026-05-07 03:27 | 42.35928 | -71.01518 | 29 ft | 16 kts | 18° |
| 2026-05-07 03:27 | 42.35971 | -71.01551 | 29 ft | 8 kts | 311° |
| 2026-05-07 03:27 | 42.36055 | -71.01599 | 28 ft | 13 kts | 324° |
| 2026-05-07 03:28 | 42.36086 | -71.01677 | 27 ft | 0 kts | 291° |